Time;durP1;ratioP1;P1;durP2;ratioP2;P2;SDS_P1;SDS_P2;PMS_P1;PMS_P2;Temp;Humidity;BMP_temperature;BMP_pressure;BME280_temperature;BME280_humidity;BME280_pressure;Samples;Min_cycle;Max_cycle;Signal;HPM_P1;HPM_P2
2021/05/20 00:00:22;;;;;;;1.40;1.30;;;;;;;12.58;100.00;98456.27;1629276;86;21015;-78
2021/05/20 00:02:48;;;;;;;1.35;1.25;;;;;;;12.57;100.00;98465.45;1654395;86;21000;-76
2021/05/20 00:05:16;;;;;;;0.90;0.90;;;;;;;12.55;100.00;98464.41;1643038;86;21028;-78
2021/05/20 00:07:43;;;;;;;1.00;0.90;;;;;;;12.55;100.00;98456.33;1639497;86;21004;-77
2021/05/20 00:10:12;;;;;;;1.22;1.12;;;;;;;12.55;100.00;98467.11;1641243;85;21146;-76
2021/05/20 00:12:39;;;;;;;1.20;1.10;;;;;;;12.56;100.00;98458.48;1655551;86;21097;-77
2021/05/20 00:15:07;;;;;;;1.05;0.70;;;;;;;12.54;100.00;98455.26;1630013;86;21600;-80
2021/05/20 00:17:33;;;;;;;1.65;1.20;;;;;;;12.53;100.00;98457.70;1638749;85;20984;-80
2021/05/20 00:20:00;;;;;;;0.95;0.93;;;;;;;12.51;100.00;98468.80;1653566;86;21071;-79
2021/05/20 00:22:29;;;;;;;1.72;0.88;;;;;;;12.50;100.00;98459.64;1652713;85;21025;-77
2021/05/20 00:24:55;;;;;;;0.65;0.65;;;;;;;12.46;100.00;98468.87;1637289;86;20988;-77
2021/05/20 00:27:22;;;;;;;1.40;1.30;;;;;;;12.45;100.00;98459.71;1658374;85;21138;-77
2021/05/20 00:29:49;;;;;;;1.05;0.75;;;;;;;12.45;100.00;98460.52;1648668;86;21099;-75
2021/05/20 00:32:17;;;;;;;1.47;0.60;;;;;;;12.47;100.00;98466.97;1639700;86;21615;-75
2021/05/20 00:34:43;;;;;;;0.78;0.78;;;;;;;12.48;100.00;98471.25;1639408;85;21128;-79
2021/05/20 00:37:10;;;;;;;1.20;0.70;;;;;;;12.45;100.00;98471.30;1652315;86;21027;-80
2021/05/20 00:39:36;;;;;;;0.53;0.53;;;;;;;12.45;100.00;98463.76;1626017;86;21628;-74
2021/05/20 00:42:11;;;;;;;0.80;0.80;;;;;;;12.48;100.00;98476.10;1649941;85;21478;-75
2021/05/20 00:45:07;;;;;;;0.80;0.80;;;;;;;12.49;100.00;98463.42;1650686;86;21024;-75
2021/05/20 00:47:34;;;;;;;1.17;0.95;;;;;;;12.46;100.00;98466.17;1649229;86;21068;-74
2021/05/20 00:50:03;;;;;;;1.00;0.82;;;;;;;12.46;100.00;98475.61;1629662;86;21808;-75
2021/05/20 00:52:30;;;;;;;4.62;0.65;;;;;;;12.45;100.00;98463.76;1653415;85;21002;-74
2021/05/20 00:55:00;;;;;;;2.35;0.75;;;;;;;12.44;100.00;98456.75;1619954;86;20986;-74
2021/05/20 00:57:27;;;;;;;1.85;0.68;;;;;;;12.42;100.00;98470.52;1658004;86;20978;-72
2021/05/20 00:59:53;;;;;;;1.20;0.80;;;;;;;12.44;100.00;98459.45;1652044;85;21106;-73
2021/05/20 01:02:20;;;;;;;1.02;0.75;;;;;;;12.43;100.00;98465.93;1632775;86;21081;-75
2021/05/20 01:04:46;;;;;;;0.80;0.80;;;;;;;12.40;100.00;98471.92;1637282;86;21665;-74
2021/05/20 01:07:14;;;;;;;0.80;0.80;;;;;;;12.36;100.00;98463.62;1650215;86;21061;-77
2021/05/20 01:09:42;;;;;;;0.88;0.88;;;;;;;12.34;100.00;98467.68;1644379;86;21005;-75
2021/05/20 01:12:11;;;;;;;0.62;0.62;;;;;;;12.33;100.00;98460.13;1632756;86;20986;-77
2021/05/20 01:14:42;;;;;;;0.68;0.68;;;;;;;12.32;100.00;98459.91;1646196;86;21128;-76
2021/05/20 01:17:08;;;;;;;0.88;0.80;;;;;;;12.28;100.00;98454.04;1640775;86;21025;-76
2021/05/20 01:19:37;;;;;;;0.70;0.70;;;;;;;12.26;100.00;98457.02;1645585;85;21283;-76
2021/05/20 01:22:04;;;;;;;3.50;0.80;;;;;;;12.27;100.00;98457.82;1634700;86;21066;-78
2021/05/20 01:24:31;;;;;;;0.57;0.57;;;;;;;12.24;100.00;98460.53;1641968;86;22428;-77
2021/05/20 01:26:59;;;;;;;0.70;0.70;;;;;;;12.23;100.00;98458.38;1645247;86;21697;-76
2021/05/20 01:29:26;;;;;;;0.72;0.72;;;;;;;12.23;100.00;98460.27;1634440;86;21034;-73
2021/05/20 01:31:52;;;;;;;0.80;0.80;;;;;;;12.18;100.00;98457.10;1654390;86;21089;-77
2021/05/20 01:34:18;;;;;;;2.45;0.90;;;;;;;12.15;100.00;98454.19;1655925;86;21193;-78
2021/05/20 01:36:45;;;;;;;2.67;0.95;;;;;;;12.12;100.00;98455.59;1648303;85;21129;-78
2021/05/20 01:39:11;;;;;;;0.93;0.88;;;;;;;12.14;100.00;98456.63;1624678;86;21025;-74
2021/05/20 01:41:38;;;;;;;1.35;1.17;;;;;;;12.15;100.00;98454.19;1644411;86;21641;-71
2021/05/20 01:44:05;;;;;;;1.77;1.67;;;;;;;12.11;100.00;98493.05;1655894;86;21121;-74
2021/05/20 01:46:33;;;;;;;2.40;0.95;;;;;;;12.07;100.00;98466.43;1654203;86;21788;-74
2021/05/20 01:48:59;;;;;;;0.90;0.90;;;;;;;12.06;100.00;98451.89;1625398;86;21025;-77
2021/05/20 01:51:25;;;;;;;0.80;0.80;;;;;;;12.05;100.00;98463.75;1624688;86;21148;-73
2021/05/20 01:53:56;;;;;;;1.30;1.25;;;;;;;12.07;100.00;98468.32;1642100;86;21065;-74
2021/05/20 01:56:24;;;;;;;1.20;1.10;;;;;;;12.06;100.00;98472.10;1662983;86;21097;-75
2021/05/20 01:58:51;;;;;;;3.83;1.00;;;;;;;11.98;100.00;98462.78;1623186;86;21109;-75
2021/05/20 02:01:17;;;;;;;1.00;0.90;;;;;;;11.94;100.00;98457.69;1654693;86;21089;-76
2021/05/20 02:03:44;;;;;;;1.05;0.70;;;;;;;11.92;100.00;98473.89;1654557;86;21051;-74
2021/05/20 02:06:10;;;;;;;3.12;1.07;;;;;;;11.89;100.00;98463.16;1662711;85;20988;-74
2021/05/20 02:08:39;;;;;;;0.82;0.82;;;;;;;11.89;100.00;98459.13;1659194;86;20965;-77
2021/05/20 02:11:09;;;;;;;1.00;0.85;;;;;;;11.90;100.00;98461.25;1651070;86;21053;-76
2021/05/20 02:13:36;;;;;;;1.30;1.20;;;;;;;11.89;100.00;98467.75;1652435;86;21566;-76
2021/05/20 02:16:05;;;;;;;1.40;0.90;;;;;;;11.88;100.00;98454.02;1640600;86;21021;-76
2021/05/20 02:18:33;;;;;;;1.50;0.80;;;;;;;11.87;100.00;98452.41;1650549;86;20986;-75
2021/05/20 02:20:59;;;;;;;2.60;1.00;;;;;;;11.85;100.00;98464.00;1649259;86;21121;-75
2021/05/20 02:23:26;;;;;;;1.45;1.10;;;;;;;11.84;100.00;98458.38;1658297;86;21208;-75
2021/05/20 02:25:52;;;;;;;1.05;1.05;;;;;;;11.86;100.00;98464.27;1643514;85;21021;-75
2021/05/20 02:28:20;;;;;;;1.77;1.02;;;;;;;11.88;100.00;98466.14;1656453;86;21017;-75
2021/05/20 02:30:46;;;;;;;1.15;1.12;;;;;;;11.84;100.00;98465.92;1629484;86;21009;-75
2021/05/20 02:33:13;;;;;;;1.30;0.93;;;;;;;11.84;100.00;98467.81;1649796;86;21037;-76
2021/05/20 02:35:40;;;;;;;1.17;1.15;;;;;;;11.83;100.00;98468.89;1643131;86;21080;-76
2021/05/20 02:38:06;;;;;;;1.20;1.10;;;;;;;11.84;100.00;98457.03;1640085;86;21138;-76
2021/05/20 02:40:34;;;;;;;1.20;1.10;;;;;;;11.80;100.00;98452.20;1659940;86;21212;-76
2021/05/20 02:43:00;;;;;;;1.05;1.05;;;;;;;11.80;100.00;98467.02;1651485;85;21176;-77
2021/05/20 02:45:27;;;;;;;2.17;1.10;;;;;;;11.80;100.00;98449.50;1624804;86;21109;-75
2021/05/20 02:47:53;;;;;;;1.25;1.15;;;;;;;11.80;100.00;98444.13;1642149;86;21064;-76
2021/05/20 02:50:23;;;;;;;1.82;1.40;;;;;;;11.80;100.00;98450.85;1645862;86;21059;-76
2021/05/20 02:52:50;;;;;;;1.32;1.10;;;;;;;11.78;100.00;98455.74;1650692;85;21077;-76
2021/05/20 02:55:22;;;;;;;1.37;1.25;;;;;;;11.73;100.00;98440.19;1630289;86;20998;-76
2021/05/20 02:57:57;;;;;;;1.50;1.40;;;;;;;11.72;100.00;98453.36;1665145;85;20986;-79
2021/05/20 03:00:20;;;;;;;3.83;1.52;;;;;;;11.70;100.00;98471.14;1640844;86;21695;-76
2021/05/20 03:02:49;;;;;;;4.25;1.60;;;;;;;11.71;100.00;98464.67;1643192;86;21064;-77
2021/05/20 03:05:16;;;;;;;2.10;1.30;;;;;;;11.73;100.00;98466.58;1646864;86;21055;-80
2021/05/20 03:07:44;;;;;;;3.52;1.70;;;;;;;11.73;100.00;98454.45;1647778;86;21075;-77
2021/05/20 03:10:13;;;;;;;1.87;1.42;;;;;;;11.73;100.00;98464.42;1656392;85;21049;-75
2021/05/20 03:12:39;;;;;;;1.45;1.35;;;;;;;11.71;100.00;98467.91;1657556;86;21026;-76
2021/05/20 03:15:09;;;;;;;1.10;1.10;;;;;;;11.70;100.00;98473.83;1654052;85;21577;-79
2021/05/20 03:17:36;;;;;;;2.37;1.55;;;;;;;11.71;100.00;98459.83;1658776;85;21158;-76
2021/05/20 03:20:03;;;;;;;2.92;1.62;;;;;;;11.68;100.00;98465.25;1641564;86;21038;-78
2021/05/20 03:22:30;;;;;;;9.18;1.52;;;;;;;11.67;100.00;98477.11;1655105;85;21022;-80
2021/05/20 03:24:57;;;;;;;6.60;1.75;;;;;;;11.67;100.00;98486.53;1651307;85;21120;-77
2021/05/20 03:27:23;;;;;;;2.40;1.42;;;;;;;11.65;100.00;98464.49;1653193;85;21168;-77
2021/05/20 03:29:50;;;;;;;6.30;1.50;;;;;;;11.66;100.00;98466.62;1655385;86;21620;-77
2021/05/20 03:32:16;;;;;;;1.40;1.30;;;;;;;11.68;100.00;98465.80;1626364;86;21104;-77
2021/05/20 03:34:43;;;;;;;3.58;1.57;;;;;;;11.70;100.00;98463.06;1661672;85;22446;-74
2021/05/20 03:37:10;;;;;;;1.65;1.35;;;;;;;11.71;100.00;98457.12;1623749;86;20978;-77
2021/05/20 03:39:37;;;;;;;2.72;1.00;;;;;;;11.71;100.00;98461.98;1663687;86;21072;-75
2021/05/20 03:42:04;;;;;;;3.55;1.25;;;;;;;11.71;100.00;98461.98;1664842;86;21145;-75
2021/05/20 03:44:31;;;;;;;1.30;1.15;;;;;;;11.70;99.88;98477.09;1640904;86;21065;-76
2021/05/20 03:46:57;;;;;;;2.80;1.52;;;;;;;11.70;99.88;98455.55;1640072;86;21040;-75
2021/05/20 03:49:24;;;;;;;1.47;1.20;;;;;;;11.67;99.56;98454.22;1654049;86;21080;-76
2021/05/20 03:51:51;;;;;;;1.50;1.40;;;;;;;11.64;99.21;98476.34;1658468;84;21586;-78
2021/05/20 03:54:17;;;;;;;1.67;1.32;;;;;;;11.63;99.29;98463.96;1637184;86;21021;-79
2021/05/20 03:56:44;;;;;;;3.08;1.42;;;;;;;11.64;99.49;98453.45;1632443;87;21042;-78
2021/05/20 03:59:10;;;;;;;1.20;1.20;;;;;;;11.69;99.75;98456.63;1612000;86;21613;-77
2021/05/20 04:01:40;;;;;;;1.57;1.12;;;;;;;11.67;99.29;98454.76;1657297;86;21164;-75
2021/05/20 04:04:06;;;;;;;1.12;1.10;;;;;;;11.67;99.17;98460.95;1659269;85;21042;-76
2021/05/20 04:06:33;;;;;;;1.22;0.90;;;;;;;11.66;98.57;98473.34;1659274;85;21045;-77
2021/05/20 04:09:00;;;;;;;1.25;1.17;;;;;;;11.65;98.52;98467.19;1613534;87;21049;-78
2021/05/20 04:11:29;;;;;;;1.62;1.52;;;;;;;11.66;98.54;98468.77;1630466;86;21037;-77
2021/05/20 04:13:57;;;;;;;1.65;1.50;;;;;;;11.66;98.33;98472.00;1658644;86;21099;-77
2021/05/20 04:16:28;;;;;;;1.95;1.07;;;;;;;11.64;97.70;98480.92;1655220;85;21101;-75
2021/05/20 04:18:53;;;;;;;1.00;1.00;;;;;;;11.62;97.89;98460.20;1656087;86;21113;-74
2021/05/20 04:21:19;;;;;;;1.30;1.20;;;;;;;11.62;98.08;98483.09;1638201;85;21603;-76
2021/05/20 04:23:47;;;;;;;6.62;1.50;;;;;;;11.61;98.08;98466.12;1629879;86;21013;-75
2021/05/20 04:26:18;;;;;;;1.07;0.95;;;;;;;11.62;97.87;98477.16;1627622;88;21128;-76
2021/05/20 04:28:42;;;;;;;1.87;1.57;;;;;;;11.62;97.62;98458.31;1606760;88;21055;-75
2021/05/20 04:31:08;;;;;;;2.00;1.17;;;;;;;11.63;97.74;98475.27;1647298;86;21114;-76
2021/05/20 04:33:35;;;;;;;1.32;1.22;;;;;;;11.64;97.47;98472.31;1645316;86;21694;-76
2021/05/20 04:36:01;;;;;;;2.20;1.87;;;;;;;11.63;97.07;98462.62;1613216;87;21129;-75
2021/05/20 04:38:28;;;;;;;1.40;1.30;;;;;;;11.67;97.42;98484.38;1633646;86;21097;-74
2021/05/20 04:40:54;;;;;;;2.02;1.60;;;;;;;11.70;97.27;98479.79;1612032;87;20994;-75
2021/05/20 04:43:20;;;;;;;2.62;1.27;;;;;;;11.71;96.97;98474.64;1611819;87;21041;-76
2021/05/20 04:45:47;;;;;;;1.37;1.30;;;;;;;11.72;96.94;98462.27;1636815;86;21292;-77
2021/05/20 04:48:13;;;;;;;1.25;1.15;;;;;;;11.74;96.72;98472.23;1659288;86;21069;-76
2021/05/20 04:50:40;;;;;;;1.85;1.60;;;;;;;11.79;96.67;98478.09;1659386;85;21094;-74
2021/05/20 04:53:09;;;;;;;1.60;1.50;;;;;;;11.83;96.63;98476.43;1640257;86;21668;-73
2021/05/20 04:55:35;;;;;;;4.50;1.55;;;;;;;11.86;96.60;98489.86;1658956;85;21104;-76
2021/05/20 04:58:02;;;;;;;1.72;1.40;;;;;;;11.85;96.10;98497.13;1659334;85;21010;-75
2021/05/20 05:00:28;;;;;;;1.80;1.65;;;;;;;11.87;95.93;98481.50;1659256;86;21613;-75
2021/05/20 05:02:56;;;;;;;1.57;1.47;;;;;;;11.89;96.23;98482.56;1646415;85;21676;-75
2021/05/20 05:05:24;;;;;;;2.20;1.95;;;;;;;11.93;96.28;98497.06;1640938;86;21069;-74
2021/05/20 05:07:51;;;;;;;1.80;1.67;;;;;;;11.97;95.97;98492.70;1659328;85;21106;-74
2021/05/20 05:10:18;;;;;;;2.00;1.77;;;;;;;12.03;95.93;98482.92;1638296;86;21589;-74
2021/05/20 05:12:44;;;;;;;3.75;1.42;;;;;;;12.08;95.71;98499.58;1659588;86;20995;-74
2021/05/20 05:15:11;;;;;;;2.33;1.45;;;;;;;12.11;95.07;98500.34;1658854;85;21061;-74
2021/05/20 05:17:37;;;;;;;1.42;1.32;;;;;;;12.12;94.59;98501.95;1638196;86;21045;-75
2021/05/20 05:20:07;;;;;;;1.30;1.20;;;;;;;12.13;94.47;98507.03;1655715;85;21649;-74
2021/05/20 05:22:33;;;;;;;1.70;1.60;;;;;;;12.12;94.27;98524.31;1632411;87;20994;-73
2021/05/20 05:25:00;;;;;;;1.70;1.60;;;;;;;12.15;94.23;98510.25;1646548;86;21038;-74
2021/05/20 05:27:26;;;;;;;2.35;1.65;;;;;;;12.16;93.64;98521.84;1659368;85;21018;-74
2021/05/20 05:29:52;;;;;;;4.22;1.57;;;;;;;12.16;93.08;98517.80;1659432;86;21598;-73
2021/05/20 05:32:19;;;;;;;1.82;1.40;;;;;;;12.18;92.78;98528.53;1659334;85;21118;-74
2021/05/20 05:34:46;;;;;;;1.72;1.62;;;;;;;12.19;92.43;98507.77;1658581;86;21076;-74
2021/05/20 05:37:12;;;;;;;1.55;1.42;;;;;;;12.19;92.48;98513.97;1659311;85;21103;-75
2021/05/20 05:39:39;;;;;;;2.58;1.72;;;;;;;12.22;92.38;98514.75;1659307;86;21184;-73
2021/05/20 05:42:06;;;;;;;1.65;1.55;;;;;;;12.26;92.22;98529.80;1645490;86;21622;-74
2021/05/20 05:44:32;;;;;;;1.50;1.40;;;;;;;12.29;92.05;98541.34;1618410;86;20996;-74
2021/05/20 05:47:00;;;;;;;3.58;1.72;;;;;;;12.32;91.92;98529.19;1659299;85;20982;-74
2021/05/20 05:49:30;;;;;;;3.40;1.80;;;;;;;12.36;91.85;98524.83;1658439;86;21010;-74
2021/05/20 05:52:04;;;;;;;1.98;1.22;;;;;;;12.38;91.69;98535.56;1659308;85;21082;-73
2021/05/20 05:54:28;;;;;;;1.72;1.35;;;;;;;12.40;90.96;98546.88;1618877;86;21069;-72
2021/05/20 05:56:54;;;;;;;4.58;1.47;;;;;;;12.44;91.02;98549.24;1659336;86;21846;-73
2021/05/20 05:59:20;;;;;;;1.60;1.42;;;;;;;12.48;90.82;98569.14;1659249;86;21126;-74
2021/05/20 06:01:47;;;;;;;1.70;1.52;;;;;;;12.46;89.37;98563.25;1651275;85;22256;-73
2021/05/20 06:04:17;;;;;;;2.45;1.57;;;;;;;12.49;89.05;98551.88;1659374;85;21078;-73
2021/05/20 06:06:44;;;;;;;2.05;1.95;;;;;;;12.49;87.93;98564.01;1656519;85;21121;-74
2021/05/20 06:09:12;;;;;;;1.82;1.65;;;;;;;12.50;88.06;98567.51;1638045;86;21090;-74
2021/05/20 06:11:38;;;;;;;2.15;1.40;;;;;;;12.51;88.12;98573.97;1659193;85;21594;-73
2021/05/20 06:14:07;;;;;;;3.65;1.47;;;;;;;12.51;88.10;98577.21;1638237;86;20982;-75
2021/05/20 06:16:40;;;;;;;3.47;2.02;;;;;;;12.46;87.91;98570.53;1648975;86;21110;-74
2021/05/20 06:19:07;;;;;;;;;;;;;;;12.49;88.05;98567.25;1654072;86;21003;-73
2021/05/20 06:21:34;;;;;;;1.62;1.52;;;;;;;12.52;88.20;98566.66;1659293;85;21132;-73
2021/05/20 06:24:02;;;;;;;7.70;1.92;;;;;;;12.54;88.03;98565.29;1659117;86;20982;-76
2021/05/20 06:26:29;;;;;;;1.87;1.62;;;;;;;12.56;87.90;98572.56;1658671;85;21115;-75
2021/05/20 06:28:55;;;;;;;2.30;1.40;;;;;;;12.58;87.90;98579.80;1638096;86;21020;-73
2021/05/20 06:31:23;;;;;;;1.60;1.50;;;;;;;12.61;87.26;98575.73;1638005;86;21077;-75
2021/05/20 06:33:50;;;;;;;3.75;1.57;;;;;;;12.63;86.90;98575.69;1635820;86;21757;-72
2021/05/20 06:36:17;;;;;;;2.35;1.85;;;;;;;12.68;86.87;98572.12;1658536;86;21041;-74
2021/05/20 06:38:44;;;;;;;7.28;1.50;;;;;;;12.71;86.77;98576.92;1659227;85;21069;-73
2021/05/20 06:41:10;;;;;;;1.52;1.22;;;;;;;12.73;86.22;98580.14;1638226;86;21713;-73
2021/05/20 06:43:37;;;;;;;5.70;1.42;;;;;;;12.78;86.29;98581.42;1659052;86;20982;-73
2021/05/20 06:46:06;;;;;;;1.70;1.60;;;;;;;12.81;85.40;98578.13;1659183;85;21110;-73
2021/05/20 06:48:34;;;;;;;5.60;1.40;;;;;;;12.86;85.30;98603.70;1659127;86;20978;-72
2021/05/20 06:51:01;;;;;;;1.65;1.55;;;;;;;12.88;84.17;98591.27;1638086;86;21037;-72
2021/05/20 06:53:30;;;;;;;8.78;1.42;;;;;;;12.90;84.20;98610.11;1619163;86;21005;-71
2021/05/20 06:56:00;;;;;;;1.57;1.47;;;;;;;12.95;84.07;98607.91;1621638;87;21026;-72
2021/05/20 07:01:10;;;;;;;2.75;1.40;;;;;;;13.05;83.52;98588.30;1648177;87;21065;-72
2021/05/20 07:03:37;;;;;;;4.72;2.00;;;;;;;13.10;82.66;98611.17;1649759;85;21154;-73
2021/05/20 07:06:04;;;;;;;1.85;1.42;;;;;;;13.14;82.40;98616.04;1648001;87;21060;-72
2021/05/20 07:08:33;;;;;;;1.60;1.50;;;;;;;13.18;81.99;98603.56;1625588;87;21096;-73
2021/05/20 07:11:01;;;;;;;1.67;1.57;;;;;;;13.20;81.90;98606.20;1648082;87;21656;-72
2021/05/20 07:13:27;;;;;;;1.65;1.55;;;;;;;13.23;81.91;98602.12;1655786;85;21024;-72
2021/05/20 07:15:54;;;;;;;3.47;2.20;;;;;;;13.26;81.94;98604.23;1652050;85;20977;-73
2021/05/20 07:18:20;;;;;;;4.72;1.77;;;;;;;13.29;81.81;98613.09;1675453;85;21029;-73
2021/05/20 07:20:47;;;;;;;4.17;1.67;;;;;;;13.32;81.82;98619.27;1652127;85;21005;-73
2021/05/20 07:23:17;;;;;;;3.15;1.40;;;;;;;13.34;81.17;98608.41;1651070;85;21099;-73
2021/05/20 07:25:43;;;;;;;3.35;2.10;;;;;;;13.38;81.23;98605.38;1675463;85;21009;-72
2021/05/20 07:28:10;;;;;;;2.27;1.85;;;;;;;13.42;80.93;98613.16;1674959;85;21025;-70
2021/05/20 07:30:37;;;;;;;2.60;1.70;;;;;;;13.43;80.98;98611.23;1669874;85;21620;-71
2021/05/20 07:33:04;;;;;;;2.87;1.67;;;;;;;13.47;81.04;98625.79;1663202;85;20981;-71
2021/05/20 07:35:32;;;;;;;2.12;1.90;;;;;;;13.47;80.98;98636.59;1675523;85;21108;-73
2021/05/20 07:37:59;;;;;;;5.28;2.15;;;;;;;13.51;80.73;98628.14;1648530;85;21080;-71
2021/05/20 07:40:25;;;;;;;2.58;2.20;;;;;;;13.55;80.54;98633.21;1648021;87;21588;-70
2021/05/20 07:42:52;;;;;;;3.77;1.80;;;;;;;13.58;80.46;98639.36;1648781;85;21092;-72
2021/05/20 07:45:18;;;;;;;2.08;1.87;;;;;;;13.60;80.23;98644.48;1625627;87;21588;-71
2021/05/20 07:47:48;;;;;;;5.47;2.77;;;;;;;13.62;79.96;98659.86;1647877;87;21063;-73
2021/05/20 07:50:14;;;;;;;2.37;2.02;;;;;;;13.60;79.68;98657.44;1646182;85;21016;-73
2021/05/20 07:52:41;;;;;;;4.90;2.98;;;;;;;13.63;79.62;98651.44;1652028;84;21021;-72
2021/05/20 07:55:09;;;;;;;2.08;1.82;;;;;;;13.65;79.61;98666.02;1662799;85;21132;-72
2021/05/20 07:57:35;;;;;;;3.12;2.00;;;;;;;13.65;79.32;98653.86;1659985;85;21613;-71
2021/05/20 08:00:05;;;;;;;2.37;2.17;;;;;;;13.64;79.09;98673.86;1659262;85;21790;-72
2021/05/20 08:05:09;;;;;;;4.03;1.92;;;;;;;13.65;78.80;98680.33;1647846;87;21637;-73
2021/05/20 08:10:13;;;;;;;2.95;2.20;;;;;;;13.66;78.01;98683.30;1641774;85;21072;-70
2021/05/20 08:12:33;;;;;;;7.12;2.10;;;;;;;13.66;78.23;98684.64;1641415;87;21176;-71
2021/05/20 08:15:01;;;;;;;3.55;3.17;;;;;;;13.67;78.00;98692.20;1648374;85;21076;-71
2021/05/20 08:17:29;;;;;;;2.83;2.55;;;;;;;13.70;78.14;98690.25;1668746;85;21551;-72
2021/05/20 08:19:56;;;;;;;7.42;2.30;;;;;;;13.72;78.47;98698.85;1625473;87;21044;-72
2021/05/20 08:22:23;;;;;;;4.97;2.20;;;;;;;13.73;78.04;98698.56;1633303;85;21029;-73
2021/05/20 08:24:53;;;;;;;3.22;2.12;;;;;;;13.76;77.41;98693.14;1652074;85;21798;-72
2021/05/20 08:27:20;;;;;;;3.85;3.47;;;;;;;13.75;76.52;98728.81;1675361;85;21020;-71
2021/05/20 08:29:46;;;;;;;2.05;1.80;;;;;;;13.78;76.33;98720.11;1652180;85;21577;-70
2021/05/20 08:32:12;;;;;;;5.70;3.75;;;;;;;13.82;75.82;98712.20;1652525;85;21120;-71
2021/05/20 08:34:41;;;;;;;4.72;2.62;;;;;;;13.86;75.60;98768.08;1675290;85;21089;-71
2021/05/20 08:37:08;;;;;;;7.40;4.60;;;;;;;13.89;75.08;98716.70;1673571;85;21104;-71
2021/05/20 08:39:34;;;;;;;4.42;3.42;;;;;;;13.94;75.24;98730.94;1675343;85;21101;-71
2021/05/20 08:42:01;;;;;;;7.25;3.08;;;;;;;13.98;75.39;98742.77;1651196;85;21053;-70
2021/05/20 08:44:28;;;;;;;3.40;3.12;;;;;;;14.04;75.02;98736.73;1673375;85;21005;-71
2021/05/20 08:46:58;;;;;;;5.15;4.65;;;;;;;14.11;74.56;98732.28;1649799;85;21068;-71
2021/05/20 08:49:25;;;;;;;3.50;2.95;;;;;;;14.16;74.44;98743.81;1647593;87;21104;-71
2021/05/20 08:51:53;;;;;;;4.62;3.67;;;;;;;14.22;73.85;98746.70;1627228;85;20997;-71
2021/05/20 08:54:23;;;;;;;9.03;4.33;;;;;;;14.26;72.94;98742.30;1643889;85;21041;-70
2021/05/20 08:56:52;;;;;;;3.90;3.50;;;;;;;14.34;72.55;98742.15;1646724;87;21061;-70
2021/05/20 08:59:18;;;;;;;7.08;4.92;;;;;;;14.44;71.63;98758.78;1648329;85;21111;-70
2021/05/20 09:01:45;;;;;;;3.90;2.90;;;;;;;14.55;71.52;98757.51;1631963;87;21209;-70
2021/05/20 09:04:11;;;;;;;2.52;2.35;;;;;;;14.63;69.80;98758.16;1672451;85;21037;-71
2021/05/20 09:06:51;;;;;;;2.75;2.55;;;;;;;14.69;69.52;98767.25;1665758;85;21596;-71
2021/05/20 09:09:31;;;;;;;6.83;3.33;;;;;;;14.73;68.59;98770.96;1653425;85;21040;-72
2021/05/20 09:11:57;;;;;;;6.85;3.12;;;;;;;14.78;69.30;98737.03;1662266;85;21009;-70
2021/05/20 09:14:40;;;;;;;3.45;2.95;;;;;;;14.82;67.46;98748.86;1625650;87;21703;-70
2021/05/20 09:17:17;;;;;;;3.27;1.62;;;;;;;14.84;66.85;98758.85;1646496;86;21037;-71
2021/05/20 09:20:00;;;;;;;3.27;1.87;;;;;;;14.82;66.04;98761.04;1646606;86;21581;-72
2021/05/20 09:22:29;;;;;;;2.87;2.02;;;;;;;14.79;66.14;98788.72;1629539;87;21068;-71
2021/05/20 09:24:59;;;;;;;4.08;2.30;;;;;;;14.79;66.31;98759.49;1646519;87;21120;-70
2021/05/20 09:27:36;;;;;;;1.82;1.72;;;;;;;14.82;66.62;98781.34;1646377;86;21107;-69
2021/05/20 09:30:21;;;;;;;11.48;4.42;;;;;;;14.86;66.58;98768.58;1650337;85;20993;-70
2021/05/20 09:32:57;;;;;;;2.10;2.00;;;;;;;14.91;66.97;98755.75;1624558;87;21549;-71
2021/05/20 09:35:32;;;;;;;1.60;1.25;;;;;;;15.03;66.66;98800.72;1645043;87;21036;-70
2021/05/20 09:38:24;;;;;;;2.05;1.95;;;;;;;15.15;66.21;98782.08;1645104;87;21137;-71
2021/05/20 09:41:01;;;;;;;1.57;1.05;;;;;;;15.28;66.46;98798.06;1628229;87;21636;-69
2021/05/20 09:43:34;;;;;;;2.62;1.92;;;;;;;15.39;63.63;98821.14;1645165;87;20997;-71
2021/05/20 09:46:11;;;;;;;5.12;2.25;;;;;;;15.43;62.81;98802.37;1652002;85;21113;-70
2021/05/20 09:48:43;;;;;;;2.75;1.70;;;;;;;15.42;62.28;98801.56;1641004;86;21613;-70
2021/05/20 09:51:26;;;;;;;4.10;2.02;;;;;;;15.40;62.36;98792.11;1626245;87;21053;-71
2021/05/20 09:53:53;;;;;;;2.20;2.00;;;;;;;15.39;62.57;98777.80;1642290;86;21979;-68
2021/05/20 09:56:38;;;;;;;1.95;1.77;;;;;;;15.37;62.31;98803.02;1633093;86;21646;-69
2021/05/20 09:59:04;;;;;;;2.42;2.22;;;;;;;15.38;62.66;98798.41;1596802;87;28452;-67
2021/05/20 10:01:31;;;;;;;4.65;1.30;;;;;;;15.34;62.50;98808.25;1605693;87;21101;-69
2021/05/20 10:03:58;;;;;;;1.32;1.30;;;;;;;15.31;62.40;98804.22;1600361;87;21160;-71
2021/05/20 10:06:42;;;;;;;3.20;1.20;;;;;;;15.30;62.58;98804.55;1638779;86;21109;-71
2021/05/20 10:09:13;;;;;;;2.33;1.60;;;;;;;15.31;62.23;98816.96;1618483;88;21619;-69
2021/05/20 10:11:45;;;;;;;1.27;1.17;;;;;;;15.34;62.21;98802.83;1618888;88;21066;-71
2021/05/20 10:14:09;;;;;;;2.27;1.95;;;;;;;15.38;62.47;98799.76;1626349;87;21614;-68
2021/05/20 10:16:40;;;;;;;1.15;1.05;;;;;;;15.44;62.83;98799.91;1621336;87;21592;-70
2021/05/20 10:19:07;;;;;;;3.00;1.37;;;;;;;15.53;61.86;98780.50;1618970;88;21125;-70
2021/05/20 10:21:33;;;;;;;2.87;1.60;;;;;;;15.63;61.08;98802.74;1617791;87;21661;-71
2021/05/20 10:24:00;;;;;;;1.62;1.52;;;;;;;15.74;59.57;98799.81;1643873;86;21085;-68
2021/05/20 10:26:26;;;;;;;1.75;1.60;;;;;;;15.85;59.91;98794.42;1622427;87;21128;-68
2021/05/20 10:28:53;;;;;;;5.85;1.47;;;;;;;16.01;59.74;98794.33;1645287;86;21117;-66
2021/05/20 10:31:19;;;;;;;5.08;1.42;;;;;;;16.07;57.13;98825.08;1619771;87;21808;-72
2021/05/20 10:33:47;;;;;;;2.27;1.52;;;;;;;16.07;57.31;98820.20;1637787;87;20973;-75
2021/05/20 10:36:25;;;;;;;2.62;1.40;;;;;;;16.03;58.32;98805.66;1619602;87;21635;-73
2021/05/20 10:38:51;;;;;;;3.87;1.20;;;;;;;16.01;57.90;98817.38;1596675;88;21134;-71
2021/05/20 10:41:20;;;;;;;1.60;1.50;;;;;;;16.00;57.81;98812.51;1618854;88;20991;-65
2021/05/20 10:43:50;;;;;;;2.12;1.92;;;;;;;16.01;58.44;98801.11;1607690;87;21132;-74
2021/05/20 10:46:19;;;;;;;2.75;1.40;;;;;;;16.06;58.41;98790.95;1624468;87;21082;-74
2021/05/20 10:48:55;;;;;;;3.83;2.52;;;;;;;16.19;58.60;98780.33;1618798;88;21039;-71
2021/05/20 10:51:37;;;;;;;6.33;2.80;;;;;;;16.29;57.98;98789.58;1636749;87;21083;-70
2021/05/20 10:54:07;;;;;;;4.00;3.33;;;;;;;16.35;58.49;98783.73;1643383;86;21158;-70
2021/05/20 10:56:42;;;;;;;4.05;1.80;;;;;;;16.49;58.77;98795.86;1612208;87;21139;-71
2021/05/20 10:59:32;;;;;;;1.98;1.70;;;;;;;16.64;57.55;98805.56;1589755;89;20966;-73
2021/05/20 11:01:59;;;;;;;2.85;1.57;;;;;;;16.72;56.83;98799.37;1609819;89;21073;-72
2021/05/20 11:04:38;;;;;;;2.40;2.20;;;;;;;16.80;57.19;98789.90;1608011;87;21606;-71
2021/05/20 11:07:05;;;;;;;3.47;1.52;;;;;;;16.93;57.35;98817.52;1595188;88;21561;-72
2021/05/20 11:09:48;;;;;;;2.10;1.90;;;;;;;16.96;53.93;98830.48;1619619;88;21115;-68
2021/05/20 11:12:17;;;;;;;5.62;1.52;;;;;;;16.90;54.83;98822.22;1639548;86;21553;-69
2021/05/20 11:14:45;;;;;;;4.55;1.25;;;;;;;16.83;54.50;98817.00;1641093;86;21121;-68
2021/05/20 11:17:31;;;;;;;4.15;1.55;;;;;;;16.72;54.99;98819.18;1613192;87;21017;-72
2021/05/20 11:20:27;;;;;;;2.12;1.75;;;;;;;16.64;55.31;98824.02;1652875;86;21191;-71
2021/05/20 11:23:19;;;;;;;1.85;1.60;;;;;;;16.60;54.74;98836.58;1635640;86;20981;-71
2021/05/20 11:26:02;;;;;;;2.30;2.10;;;;;;;16.53;55.35;98826.70;1648989;86;20994;-67
2021/05/20 11:28:30;;;;;;;3.08;1.72;;;;;;;16.48;56.09;98831.70;1617042;87;20985;-68
2021/05/20 11:31:01;;;;;;;2.83;2.62;;;;;;;16.45;56.60;98827.45;1592285;90;21657;-68
2021/05/20 11:33:29;;;;;;;3.08;1.70;;;;;;;16.43;56.98;98824.23;1593270;88;21054;-67
2021/05/20 11:36:14;;;;;;;1.07;0.95;;;;;;;16.43;57.20;98829.66;1632003;87;21153;-68
2021/05/20 11:38:28;;;;;;;3.10;1.67;;;;;;;16.43;57.35;98824.23;1610339;87;21098;-68
2021/05/20 11:40:55;;;;;;;2.77;1.50;;;;;;;16.43;57.70;98825.59;1631847;87;21020;-70
2021/05/20 11:43:30;;;;;;;1.40;1.30;;;;;;;16.42;58.03;98838.91;1598450;88;21082;-70
2021/05/20 11:45:58;;;;;;;2.47;1.52;;;;;;;16.42;57.91;98841.63;1610516;87;21716;-68